Stoumont, Belgium
Current Conditions -  °F | °C
As of 9:25 AM on Wednesday 22 Oct 2014 (Local Time) from EBLB Reporting Station
Broken Clouds Broken Clouds  
Wind Chill: 29°   Ceiling: 800
Heat Index: 37°   Visibility: 4mi
Dew Point: 37°   Wind: 15mph
Humidity: 100%   Direction: 300°WNW
Pressure: 30.03"   Gusts: NA
Location:  50.41°N, 5.81°E
Report Text: EBLB 220725Z 30013KT 7000 SCT004 BKN008 BKN011 03/03 Q1017 YLO
Loading
Personal Weather Stations






























Interactive Weather Map
Tropical Storm Tracking
New forecast layout! Learn more

10-Day Weather Forecast

Advertisements
Track Severe Weather on mobile